Time;durP1;ratioP1;P1;durP2;ratioP2;P2;SDS_P1;SDS_P2;PMS_P1;PMS_P2;Temp;Humidity;BMP_temperature;BMP_pressure;BME280_temperature;BME280_humidity;BME280_pressure;Samples;Min_cycle;Max_cycle;Signal;HPM_P1;HPM_P2
2023/10/04 00:00:20;;;;;;;13.95;6.55;;;;;;;11.47;100.00;98517.16;5007545;28;20422;-83
2023/10/04 00:02:49;;;;;;;14.77;6.63;;;;;;;11.47;100.00;98513.69;5012713;28;20408;-85
2023/10/04 00:05:16;;;;;;;14.50;6.32;;;;;;;11.47;100.00;98509.19;5002578;28;20906;-85
2023/10/04 00:07:45;;;;;;;19.95;7.20;;;;;;;11.50;100.00;98524.63;5002363;28;20395;-85
2023/10/04 00:10:11;;;;;;;19.83;8.00;;;;;;;11.30;100.00;98520.69;5003874;28;20933;-83
2023/10/04 00:12:38;;;;;;;20.53;8.20;;;;;;;11.33;100.00;98530.84;5012847;28;20473;-85
2023/10/04 00:15:12;;;;;;;15.90;7.90;;;;;;;11.22;100.00;98533.22;5008711;28;20480;-83
2023/10/04 00:17:41;;;;;;;20.15;8.27;;;;;;;11.19;100.00;98528.41;5002793;28;20410;-83
2023/10/04 00:20:10;;;;;;;18.65;7.95;;;;;;;11.20;100.00;98531.84;4998406;28;20422;-84
2023/10/04 00:22:39;;;;;;;13.35;7.15;;;;;;;11.21;100.00;98534.25;5015240;28;20412;-85
2023/10/04 00:25:11;;;;;;;16.27;7.50;;;;;;;11.24;100.00;98535.66;5001310;28;20399;-85
2023/10/04 00:27:40;;;;;;;17.65;7.43;;;;;;;11.25;100.00;98535.44;5002208;28;20398;-85
2023/10/04 00:30:10;;;;;;;16.33;7.47;;;;;;;11.24;100.00;98536.47;5006283;28;20414;-84
2023/10/04 00:32:36;;;;;;;14.85;7.10;;;;;;;11.25;100.00;98537.28;5014896;28;20420;-85
2023/10/04 00:35:03;;;;;;;16.13;6.93;;;;;;;11.24;100.00;98540.97;5006990;28;20516;-83
2023/10/04 00:37:31;;;;;;;13.50;7.25;;;;;;;11.22;100.00;98543.81;5005918;28;20506;-84
2023/10/04 00:39:58;;;;;;;23.98;7.50;;;;;;;11.18;100.00;98540.03;5007097;28;20407;-85
2023/10/04 00:42:26;;;;;;;13.82;6.70;;;;;;;11.16;100.00;98538.63;4999709;28;20403;-83
2023/10/04 00:44:53;;;;;;;12.50;7.07;;;;;;;11.14;100.00;98530.91;5015498;28;20723;-85
2023/10/04 00:47:21;;;;;;;14.50;7.35;;;;;;;11.14;100.00;98530.91;4999390;28;20485;-85
2023/10/04 00:49:47;;;;;;;13.65;7.22;;;;;;;11.12;100.00;98535.63;5000882;28;20398;-86
2023/10/04 00:52:14;;;;;;;15.23;7.05;;;;;;;11.10;100.00;98527.09;5004940;28;20549;-85
2023/10/04 00:54:41;;;;;;;18.40;7.97;;;;;;;11.09;100.00;98530.78;5007078;28;20400;-85
2023/10/04 00:57:10;;;;;;;17.50;7.67;;;;;;;11.13;100.00;98536.41;5006761;28;20411;-85
2023/10/04 00:59:37;;;;;;;17.15;7.47;;;;;;;11.12;100.00;98532.97;4998954;28;20414;-84
2023/10/04 01:02:04;;;;;;;15.85;6.72;;;;;;;11.11;100.00;98538.50;4999218;28;20429;-87
2023/10/04 01:04:31;;;;;;;17.85;7.40;;;;;;;11.08;100.00;98523.84;5001320;28;20406;-82
2023/10/04 01:06:58;;;;;;;16.35;7.32;;;;;;;11.07;100.00;98527.53;5016961;28;20432;-85
2023/10/04 01:09:25;;;;;;;13.23;6.82;;;;;;;11.06;100.00;98523.25;5001056;28;20399;-85
2023/10/04 01:11:51;;;;;;;15.73;7.60;;;;;;;11.01;100.00;98524.97;5008470;28;20402;-86
2023/10/04 01:14:25;;;;;;;16.93;8.20;;;;;;;11.01;100.00;98524.97;5005651;28;20447;-86
2023/10/04 01:16:54;;;;;;;16.98;7.07;;;;;;;10.98;100.00;98517.47;5011436;28;20414;-85
2023/10/04 01:19:22;;;;;;;18.88;8.27;;;;;;;10.98;100.00;98522.78;5003038;28;20919;-85
2023/10/04 01:21:49;;;;;;;17.45;7.93;;;;;;;10.99;100.00;98527.03;4998004;28;20448;-84
2023/10/04 01:24:17;;;;;;;16.25;7.90;;;;;;;10.99;100.00;98516.44;5005815;28;20402;-84
2023/10/04 01:26:43;;;;;;;24.45;8.70;;;;;;;10.94;100.00;98524.28;5001537;28;20422;-85
2023/10/04 01:29:11;;;;;;;16.55;8.63;;;;;;;10.94;100.00;98525.09;5013135;28;20412;-85
2023/10/04 01:31:38;;;;;;;17.70;8.45;;;;;;;10.93;100.00;98525.31;5012624;28;20420;-85
2023/10/04 01:34:06;;;;;;;15.40;8.00;;;;;;;10.89;100.00;98516.19;5001162;28;20402;-85
2023/10/04 01:36:32;;;;;;;17.08;7.72;;;;;;;10.82;100.00;98524.25;5000789;28;20402;-86
2023/10/04 01:38:58;;;;;;;16.55;7.95;;;;;;;10.87;100.00;98519.06;5001021;28;20407;-85
2023/10/04 01:41:26;;;;;;;18.17;8.15;;;;;;;10.70;100.00;98518.88;5006728;28;20425;-85
2023/10/04 01:43:53;;;;;;;18.58;8.27;;;;;;;10.77;100.00;98518.78;5003617;28;20921;-85
2023/10/04 01:46:19;;;;;;;15.48;7.68;;;;;;;10.73;100.00;98521.09;5015522;28;20413;-85
2023/10/04 01:48:48;;;;;;;15.73;7.93;;;;;;;10.77;100.00;98519.59;5009032;28;20416;-86
2023/10/04 01:51:14;;;;;;;20.43;8.10;;;;;;;10.76;100.00;98517.16;4998164;28;20845;-84
2023/10/04 01:53:42;;;;;;;13.15;7.60;;;;;;;10.78;100.00;98531.81;5004106;28;20411;-86
2023/10/04 01:56:08;;;;;;;14.35;7.32;;;;;;;10.77;100.00;98532.84;5003426;28;20410;-86
2023/10/04 01:58:37;;;;;;;14.68;7.22;;;;;;;10.77;100.00;98526.72;5012177;28;20420;-85
2023/10/04 02:01:06;;;;;;;14.50;7.50;;;;;;;10.74;100.00;98535.94;5004798;28;20422;-87
2023/10/04 02:03:33;;;;;;;14.95;7.55;;;;;;;10.75;100.00;98534.13;5005647;28;20406;-84
2023/10/04 02:05:59;;;;;;;14.95;7.38;;;;;;;10.74;100.00;98530.66;5019926;28;20397;-84
2023/10/04 02:08:26;;;;;;;16.63;7.73;;;;;;;10.72;100.00;98529.25;5002752;28;20398;-85
2023/10/04 02:10:54;;;;;;;20.73;7.88;;;;;;;10.70;100.00;98523.38;5002616;28;20494;-85
2023/10/04 02:13:20;;;;;;;15.80;7.55;;;;;;;10.71;100.00;98528.44;5006949;28;20408;-86
2023/10/04 02:15:50;;;;;;;17.85;7.93;;;;;;;10.72;100.00;98531.91;5021746;28;20419;-86
2023/10/04 02:18:18;;;;;;;13.00;6.82;;;;;;;10.69;100.00;98521.75;5006750;28;20408;-87
2023/10/04 02:20:53;;;;;;;13.07;6.63;;;;;;;10.67;100.00;98523.81;5005300;28;20419;-86
2023/10/04 02:23:19;;;;;;;14.90;7.35;;;;;;;10.64;100.00;98522.44;5006014;28;20404;-86
2023/10/04 02:25:46;;;;;;;13.10;6.75;;;;;;;10.61;100.00;98530.00;5013049;28;20412;-87
2023/10/04 02:28:18;;;;;;;15.40;7.07;;;;;;;10.59;100.00;98532.88;5011168;28;20415;-84
2023/10/04 02:30:47;;;;;;;13.95;7.00;;;;;;;10.59;100.00;98526.78;5010341;28;20410;-83
2023/10/04 02:33:16;;;;;;;15.30;7.15;;;;;;;10.59;100.00;98530.25;5002880;28;20707;-84
2023/10/04 02:35:46;;;;;;;14.33;7.60;;;;;;;10.58;100.00;98538.41;5009467;28;20404;-85
2023/10/04 02:38:31;;;;;;;15.30;7.72;;;;;;;10.53;100.00;98528.47;5005120;28;20413;-85
2023/10/04 02:40:59;;;;;;;15.48;7.32;;;;;;;10.54;100.00;98537.22;4985931;28;20815;-85
2023/10/04 02:43:26;;;;;;;13.80;7.03;;;;;;;10.53;100.00;98531.09;5002036;28;20398;-85
2023/10/04 02:45:53;;;;;;;11.85;6.78;;;;;;;10.51;100.00;98535.84;5001508;28;20961;-85
2023/10/04 02:48:21;;;;;;;15.65;7.53;;;;;;;10.48;100.00;98537.06;5011866;28;20408;-84
2023/10/04 02:50:47;;;;;;;16.50;7.30;;;;;;;10.46;100.00;98531.19;5009858;28;20845;-86
2023/10/04 02:53:16;;;;;;;14.32;7.10;;;;;;;10.47;100.00;98532.00;5000205;28;20399;-85
2023/10/04 02:55:42;;;;;;;16.83;7.40;;;;;;;10.44;100.00;98546.50;4999634;28;20797;-85
2023/10/04 02:58:10;;;;;;;11.77;6.63;;;;;;;10.43;100.00;98534.31;5009145;28;20413;-82
2023/10/04 03:00:41;;;;;;;14.05;7.00;;;;;;;10.40;100.00;98542.66;5014695;28;20475;-86
2023/10/04 03:03:07;;;;;;;11.90;6.50;;;;;;;10.40;100.00;98547.16;5017167;28;20758;-85
2023/10/04 03:05:35;;;;;;;10.38;6.35;;;;;;;10.37;100.00;98544.97;5008816;28;20906;-85
2023/10/04 03:08:06;;;;;;;14.63;6.95;;;;;;;10.34;100.00;98542.75;5017538;28;20885;-86
2023/10/04 03:10:33;;;;;;;12.20;6.63;;;;;;;10.33;100.00;98543.78;5005894;28;20895;-85
2023/10/04 03:13:11;;;;;;;12.25;6.43;;;;;;;10.29;100.00;98546.06;5004602;28;20437;-86
2023/10/04 03:15:38;;;;;;;15.90;7.35;;;;;;;10.22;100.00;98542.69;5014598;28;20395;-84
2023/10/04 03:18:13;;;;;;;21.07;8.10;;;;;;;10.18;100.00;98536.19;5021983;28;20823;-86
2023/10/04 03:20:48;;;;;;;13.35;6.90;;;;;;;10.18;100.00;98536.19;5001850;28;20430;-85
2023/10/04 03:23:19;;;;;;;17.67;7.05;;;;;;;10.15;100.00;98535.81;5003913;28;20394;-86
2023/10/04 03:25:48;;;;;;;12.10;6.75;;;;;;;10.16;100.00;98532.13;5003995;28;20433;-84
2023/10/04 03:28:15;;;;;;;16.90;7.40;;;;;;;10.12;100.00;98547.63;4998161;28;20402;-82
2023/10/04 03:30:44;;;;;;;15.00;6.75;;;;;;;10.10;100.00;98547.03;5013224;28;20451;-82
2023/10/04 03:33:10;;;;;;;12.15;6.32;;;;;;;10.09;100.00;98551.53;5006095;28;20413;-83
2023/10/04 03:35:39;;;;;;;14.40;7.32;;;;;;;10.08;100.00;98554.38;5006845;28;20406;-85
2023/10/04 03:38:06;;;;;;;12.93;6.38;;;;;;;10.07;100.00;98552.78;4998967;28;20407;-86
2023/10/04 03:40:37;;;;;;;12.05;6.50;;;;;;;10.07;100.00;98556.22;5010972;28;20414;-84
2023/10/04 03:43:06;;;;;;;14.07;6.90;;;;;;;10.05;100.00;98554.84;5006018;28;20791;-85
2023/10/04 03:45:32;;;;;;;12.10;6.47;;;;;;;10.04;100.00;98553.22;5003650;28;20492;-85
2023/10/04 03:47:59;;;;;;;14.13;7.32;;;;;;;10.01;100.00;98543.88;5001424;28;20433;-83
2023/10/04 03:50:27;;;;;;;13.13;6.60;;;;;;;10.00;100.00;98546.72;5009020;28;20399;-82
2023/10/04 03:52:57;;;;;;;10.82;6.25;;;;;;;9.97;100.00;98547.19;4999672;28;20800;-82
2023/10/04 03:55:27;;;;;;;12.35;6.60;;;;;;;9.92;100.00;98541.75;5001414;28;20432;-84
2023/10/04 03:57:54;;;;;;;12.02;6.63;;;;;;;9.88;100.00;98535.25;5009028;28;20482;-86
2023/10/04 04:00:22;;;;;;;13.43;6.55;;;;;;;9.86;100.00;98539.94;5006686;28;20431;-85
2023/10/04 04:02:50;;;;;;;10.83;5.97;;;;;;;9.86;100.00;98547.88;4999335;28;20919;-85
2023/10/04 04:05:20;;;;;;;13.02;6.45;;;;;;;9.82;100.00;98552.00;4998746;28;20410;-85
2023/10/04 04:07:48;;;;;;;12.75;6.68;;;;;;;9.81;100.00;98553.03;5007738;28;20416;-81
2023/10/04 04:10:14;;;;;;;10.50;6.18;;;;;;;9.79;100.00;98557.72;4999938;28;20397;-81
2023/10/04 04:12:42;;;;;;;12.63;6.57;;;;;;;9.77;100.00;98555.31;5002896;28;20438;-81
2023/10/04 04:15:10;;;;;;;13.13;6.53;;;;;;;9.77;100.00;98554.50;5008424;28;20495;-80
2023/10/04 04:17:37;;;;;;;15.90;6.95;;;;;;;9.76;100.00;98552.88;5010242;28;20424;-82
2023/10/04 04:20:13;;;;;;;15.68;7.45;;;;;;;9.76;100.00;98550.22;5018449;28;20393;-82
2023/10/04 04:22:40;;;;;;;16.92;7.93;;;;;;;9.75;100.00;98554.72;5007952;28;20759;-86
2023/10/04 04:25:14;;;;;;;16.95;8.10;;;;;;;9.74;100.00;98552.28;5001032;28;20417;-85
2023/10/04 04:27:44;;;;;;;15.13;8.00;;;;;;;9.77;100.00;98547.38;5005304;28;20398;-86
2023/10/04 04:30:16;;;;;;;17.40;7.95;;;;;;;9.80;100.00;98551.41;5000155;28;20434;-86
2023/10/04 04:32:44;;;;;;;15.88;7.85;;;;;;;9.80;100.00;98548.75;5005139;28;20487;-86
2023/10/04 04:35:15;;;;;;;15.63;8.07;;;;;;;9.81;100.00;98559.13;5013601;28;20916;-84
2023/10/04 04:37:41;;;;;;;16.17;8.18;;;;;;;9.80;100.00;98557.50;4996716;28;20445;-85
2023/10/04 04:40:17;;;;;;;14.43;7.43;;;;;;;9.80;100.00;98554.84;5004893;28;20402;-84
2023/10/04 04:42:47;;;;;;;15.57;7.47;;;;;;;9.86;100.00;98558.47;5013783;28;20825;-87
2023/10/04 04:45:16;;;;;;;18.35;8.27;;;;;;;9.84;100.00;98556.06;5001958;28;20406;-84
2023/10/04 04:47:44;;;;;;;12.63;7.13;;;;;;;9.84;100.00;98563.19;4999302;28;20413;-86
2023/10/04 04:50:11;;;;;;;12.00;7.32;;;;;;;9.82;100.00;98566.03;5011756;28;20457;-87
2023/10/04 04:52:37;;;;;;;15.98;7.50;;;;;;;9.82;100.00;98566.03;4998664;28;20403;-88
2023/10/04 04:55:04;;;;;;;19.45;8.40;;;;;;;9.77;100.00;98563.25;5007097;28;20480;-85
2023/10/04 04:57:31;;;;;;;19.25;8.60;;;;;;;9.78;100.00;98556.91;5011045;28;20906;-87
2023/10/04 04:59:58;;;;;;;15.68;7.75;;;;;;;9.77;100.00;98555.31;4995996;28;20402;-86
2023/10/04 05:02:28;;;;;;;19.02;8.38;;;;;;;9.80;100.00;98561.97;5005256;28;20581;-85
2023/10/04 05:04:54;;;;;;;17.88;8.00;;;;;;;9.81;100.00;98564.41;5005589;28;20431;-85
2023/10/04 05:07:20;;;;;;;18.58;7.80;;;;;;;9.80;100.00;98567.25;5014773;28;20458;-85
2023/10/04 05:09:46;;;;;;;19.25;8.55;;;;;;;9.79;100.00;98565.63;5004982;28;20437;-87
2023/10/04 05:12:13;;;;;;;14.93;7.43;;;;;;;9.80;100.00;98572.56;5006036;28;20909;-86
2023/10/04 05:14:39;;;;;;;13.55;6.63;;;;;;;9.77;100.00;98563.25;5004771;28;20551;-86
2023/10/04 05:17:06;;;;;;;15.70;6.40;;;;;;;9.73;100.00;98564.69;5009092;28;20492;-87
2023/10/04 05:19:32;;;;;;;10.93;6.47;;;;;;;9.73;100.00;98563.88;5007184;28;20406;-81
2023/10/04 05:21:59;;;;;;;12.75;6.80;;;;;;;9.69;100.00;98564.31;5004260;28;20454;-82
2023/10/04 05:24:25;;;;;;;15.13;6.72;;;;;;;9.67;100.00;98561.06;5004109;28;20402;-81
2023/10/04 05:26:51;;;;;;;15.95;7.20;;;;;;;9.65;100.00;98557.84;5004588;28;20498;-80
2023/10/04 05:29:17;;;;;;;13.70;7.28;;;;;;;9.69;100.00;98558.22;5004394;28;20484;-81
2023/10/04 05:31:43;;;;;;;14.10;6.90;;;;;;;9.68;100.00;98560.06;5007629;28;20406;-81
2023/10/04 05:34:11;;;;;;;15.63;7.10;;;;;;;9.68;100.00;98553.97;5008240;28;20441;-80
2023/10/04 05:36:39;;;;;;;12.57;6.65;;;;;;;9.66;100.00;98561.28;5007390;28;20541;-86
2023/10/04 05:39:07;;;;;;;12.70;6.47;;;;;;;9.66;100.00;98561.28;5027687;28;20878;-86
2023/10/04 05:41:35;;;;;;;17.25;6.25;;;;;;;9.63;100.00;98565.16;5006244;28;20418;-85
2023/10/04 05:44:02;;;;;;;13.65;6.50;;;;;;;9.64;100.00;98564.13;5006783;28;20414;-83
2023/10/04 05:46:29;;;;;;;14.07;6.32;;;;;;;9.63;100.00;98564.34;5013038;28;20412;-84
2023/10/04 05:48:55;;;;;;;12.90;5.68;;;;;;;9.63;100.00;98567.00;5003899;28;20423;-86
2023/10/04 05:51:24;;;;;;;13.68;6.25;;;;;;;9.64;100.00;98576.53;5006187;28;20949;-84
2023/10/04 05:53:52;;;;;;;16.15;7.20;;;;;;;9.64;100.00;98568.63;5006920;28;20447;-86
2023/10/04 05:56:20;;;;;;;21.52;6.95;;;;;;;9.67;100.00;98573.47;5008528;28;20433;-86
2023/10/04 05:58:46;;;;;;;18.95;6.88;;;;;;;9.66;100.00;98567.38;5009739;28;20406;-86
2023/10/04 06:01:17;;;;;;;25.67;6.53;;;;;;;9.67;100.00;98574.28;5003381;28;20421;-86
2023/10/04 06:03:44;;;;;;;16.80;6.60;;;;;;;9.68;100.00;98573.28;5014671;28;20433;-84
2023/10/04 06:06:10;;;;;;;14.32;6.50;;;;;;;9.69;100.00;98577.53;5009940;28;20408;-85
2023/10/04 06:08:38;;;;;;;15.57;6.38;;;;;;;9.74;100.00;98582.16;5006866;28;20448;-84
2023/10/04 06:11:04;;;;;;;13.23;6.30;;;;;;;9.76;100.00;98587.25;5007470;28;20765;-85
2023/10/04 06:13:30;;;;;;;10.95;5.97;;;;;;;9.79;100.00;98587.59;5017223;28;20759;-85
2023/10/04 06:15:58;;;;;;;16.17;6.40;;;;;;;9.80;100.00;98583.13;5001613;28;20410;-86
2023/10/04 06:18:30;;;;;;;18.05;6.15;;;;;;;9.82;100.00;98584.53;5012995;28;20397;-86
2023/10/04 06:20:57;;;;;;;14.40;5.50;;;;;;;9.88;100.00;98588.97;5012580;28;20498;-85
2023/10/04 06:23:24;;;;;;;14.75;5.95;;;;;;;9.94;100.00;98590.72;5007305;28;20405;-86
2023/10/04 06:25:52;;;;;;;14.32;5.63;;;;;;;10.00;100.00;98596.97;5007581;28;20430;-86
2023/10/04 06:28:19;;;;;;;12.52;6.45;;;;;;;10.06;100.00;98591.66;5013370;28;20887;-84
2023/10/04 06:30:48;;;;;;;14.93;5.70;;;;;;;10.10;100.00;98592.00;4999557;28;20410;-87
2023/10/04 06:33:15;;;;;;;21.83;6.18;;;;;;;10.17;100.00;98595.44;5009676;28;20470;-86
2023/10/04 06:35:44;;;;;;;11.70;5.47;;;;;;;10.30;100.00;98602.44;5005901;28;20510;-87
2023/10/04 06:38:12;;;;;;;19.50;6.03;;;;;;;10.33;100.00;98613.41;4999474;28;20402;-87
2023/10/04 06:40:39;;;;;;;13.30;5.50;;;;;;;10.57;100.00;98611.72;4999368;28;20429;-86
2023/10/04 06:43:08;;;;;;;12.93;5.53;;;;;;;10.80;100.00;98608.41;5017283;28;20769;-85
2023/10/04 06:45:36;;;;;;;12.73;5.70;;;;;;;11.00;100.00;98602.84;5004104;28;20436;-84
2023/10/04 06:48:06;;;;;;;14.57;5.47;;;;;;;11.14;100.00;98612.22;5006524;28;20441;-85
2023/10/04 06:50:35;;;;;;;19.83;5.80;;;;;;;11.15;100.00;98605.91;5015687;28;20776;-84
2023/10/04 06:53:03;;;;;;;12.52;5.15;;;;;;;11.33;100.00;98610.38;5009353;28;20398;-84
2023/10/04 06:55:30;;;;;;;16.63;5.40;;;;;;;11.50;100.00;98619.31;5005142;28;20397;-85
2023/10/04 06:57:57;;;;;;;8.50;4.43;;;;;;;11.65;100.00;98617.81;5004333;28;20503;-85
2023/10/04 07:00:35;;;;;;;10.98;4.95;;;;;;;11.69;100.00;98620.03;5005560;28;20733;-86
2023/10/04 07:03:03;;;;;;;10.95;4.32;;;;;;;11.78;100.00;98610.72;5003774;28;20406;-84
2023/10/04 07:05:35;;;;;;;7.43;4.20;;;;;;;11.99;100.00;98620.78;5000162;28;20426;-86
2023/10/04 07:08:03;;;;;;;7.13;3.88;;;;;;;12.08;100.00;98615.97;5008458;28;20401;-85
2023/10/04 07:10:30;;;;;;;12.07;3.83;;;;;;;12.13;100.00;98626.69;5007618;28;20486;-87
2023/10/04 07:12:57;;;;;;;6.70;3.33;;;;;;;12.23;100.00;98624.28;5009205;28;20437;-86
2023/10/04 07:15:28;;;;;;;5.35;2.65;;;;;;;12.34;100.00;98626.09;5000106;28;20407;-86
2023/10/04 07:17:54;;;;;;;5.85;2.80;;;;;;;12.37;100.00;98620.34;5009009;28;20415;-86
2023/10/04 07:20:24;;;;;;;6.03;2.95;;;;;;;12.44;100.00;98613.06;5003580;28;20423;-85
2023/10/04 07:22:58;;;;;;;7.77;3.23;;;;;;;12.52;100.00;98620.66;5004682;28;20532;-87
2023/10/04 07:25:25;;;;;;;4.25;2.55;;;;;;;12.60;100.00;98630.94;5004177;28;20407;-86
2023/10/04 07:27:52;;;;;;;5.38;2.55;;;;;;;12.67;100.00;98634.28;5003157;28;20407;-86
2023/10/04 07:30:19;;;;;;;3.80;2.30;;;;;;;12.72;100.00;98628.25;5004520;28;20437;-87
2023/10/04 07:32:48;;;;;;;4.28;2.40;;;;;;;12.85;100.00;98627.19;5018231;28;20448;-86
2023/10/04 07:35:18;;;;;;;5.05;2.20;;;;;;;12.97;100.00;98628.78;5003950;28;20521;-85
2023/10/04 07:37:45;;;;;;;6.15;2.15;;;;;;;13.06;100.00;98631.88;5007086;28;20413;-86
2023/10/04 07:40:13;;;;;;;5.95;2.40;;;;;;;13.12;100.00;98622.94;5013525;28;20432;-84
2023/10/04 07:42:40;;;;;;;5.03;2.60;;;;;;;13.19;100.00;98631.63;4998253;28;20415;-84
2023/10/04 07:45:08;;;;;;;11.85;3.30;;;;;;;13.00;100.00;98633.63;5002370;28;20758;-86
2023/10/04 07:47:36;;;;;;;4.85;2.42;;;;;;;13.28;100.00;98635.53;5004284;28;20501;-86
2023/10/04 07:50:05;;;;;;;5.73;2.70;;;;;;;13.43;100.00;98640.31;5006252;28;20909;-86
2023/10/04 07:52:31;;;;;;;8.30;2.83;;;;;;;13.43;100.00;98640.31;5013014;28;20498;-84
2023/10/04 07:54:59;;;;;;;6.57;2.70;;;;;;;13.42;100.00;98641.34;4999027;28;20415;-85
2023/10/04 07:57:25;;;;;;;7.45;2.38;;;;;;;13.64;100.00;98647.59;4998211;28;20459;-86
2023/10/04 07:59:52;;;;;;;9.15;2.38;;;;;;;13.82;100.00;98651.91;4999071;28;20739;-85
2023/10/04 08:02:18;;;;;;;4.97;2.00;;;;;;;14.04;100.00;98647.50;4999642;28;20454;-84
2023/10/04 08:04:48;;;;;;;4.10;1.90;;;;;;;14.23;100.00;98645.38;5004579;28;20472;-84
2023/10/04 08:07:18;;;;;;;5.65;2.33;;;;;;;14.36;100.00;98638.91;5013773;28;20418;-84
2023/10/04 08:09:45;;;;;;;7.57;2.10;;;;;;;14.70;100.00;98645.81;5014457;28;20408;-85
2023/10/04 08:12:11;;;;;;;5.63;2.20;;;;;;;14.93;100.00;98637.56;5009768;28;20402;-84
2023/10/04 08:14:37;;;;;;;4.00;2.17;;;;;;;15.28;100.00;98644.38;5012998;28;20412;-86
2023/10/04 08:17:04;;;;;;;2.83;1.55;;;;;;;15.57;100.00;98644.97;5010573;28;20400;-85
2023/10/04 08:19:30;;;;;;;3.75;2.22;;;;;;;15.80;100.00;98641.97;5011801;28;20401;-85
2023/10/04 08:21:56;;;;;;;5.37;1.60;;;;;;;15.93;100.00;98636.22;5013097;28;20495;-85
2023/10/04 08:24:24;;;;;;;2.22;1.25;;;;;;;16.07;100.00;98652.63;5010759;28;20414;-82
2023/10/04 08:26:50;;;;;;;4.82;1.60;;;;;;;16.14;100.00;98651.34;5006285;28;20414;-83
2023/10/04 08:29:17;;;;;;;4.20;1.60;;;;;;;16.12;100.00;98652.66;5003945;28;20429;-83
2023/10/04 08:31:43;;;;;;;6.13;2.20;;;;;;;16.13;100.00;98655.09;5006830;28;20414;-85
2023/10/04 08:34:09;;;;;;;4.95;1.90;;;;;;;15.94;100.00;98645.84;5005524;28;20821;-84
2023/10/04 08:36:39;;;;;;;5.70;2.10;;;;;;;15.77;100.00;98648.66;5010848;28;20491;-85
2023/10/04 08:39:10;;;;;;;4.38;1.83;;;;;;;15.66;100.00;98646.94;5012201;28;20409;-85
2023/10/04 08:41:40;;;;;;;2.55;1.40;;;;;;;15.64;100.00;98649.03;4998423;28;20452;-85
2023/10/04 08:44:06;;;;;;;2.28;1.42;;;;;;;15.69;100.00;98653.63;5002888;28;20959;-86
2023/10/04 08:46:34;;;;;;;3.35;1.30;;;;;;;15.74;100.00;98651.81;5007067;28;20409;-84
2023/10/04 08:49:02;;;;;;;3.20;1.70;;;;;;;15.83;100.00;98650.28;5009888;28;20405;-85
2023/10/04 08:51:48;;;;;;;2.60;1.20;;;;;;;15.85;100.00;98647.38;5003541;28;20502;-81
2023/10/04 08:54:21;;;;;;;2.67;1.33;;;;;;;15.96;100.00;98648.25;5011931;28;20801;-85
2023/10/04 08:56:52;;;;;;;4.57;2.30;;;;;;;15.84;100.00;98649.25;5000590;28;20489;-83
2023/10/04 08:59:18;;;;;;;4.43;1.67;;;;;;;15.87;100.00;98647.91;4998510;28;20513;-83
2023/10/04 09:01:46;;;;;;;6.15;2.03;;;;;;;15.87;100.00;98642.56;4987922;28;20423;-84
2023/10/04 09:04:18;;;;;;;3.20;1.40;;;;;;;16.14;100.00;98645.19;5003663;28;20398;-84
2023/10/04 09:06:45;;;;;;;3.70;1.38;;;;;;;16.29;100.00;98644.50;5014930;28;20408;-85
2023/10/04 09:09:15;;;;;;;4.10;2.08;;;;;;;16.34;100.00;98631.97;5013943;28;20413;-83
2023/10/04 09:11:41;;;;;;;7.25;1.73;;;;;;;16.10;100.00;98634.22;5014027;28;20415;-83
2023/10/04 09:14:08;;;;;;;4.53;1.60;;;;;;;16.32;100.00;98628.75;5001796;28;20473;-84
2023/10/04 09:16:35;;;;;;;3.33;1.75;;;;;;;16.43;100.00;98625.09;5006030;28;20389;-84
2023/10/04 09:19:04;;;;;;;3.33;1.50;;;;;;;16.49;100.00;98623.25;5007544;28;20800;-84
2023/10/04 09:21:31;;;;;;;5.57;1.75;;;;;;;16.56;100.00;98616.59;4987608;28;20426;-84
2023/10/04 09:24:09;;;;;;;6.40;1.90;;;;;;;16.46;100.00;98613.91;5017085;28;20410;-85
2023/10/04 09:26:40;;;;;;;3.75;1.90;;;;;;;16.45;100.00;98619.50;5007777;28;20422;-84
2023/10/04 09:29:10;;;;;;;2.45;1.30;;;;;;;16.55;100.00;98609.66;5009229;28;20468;-84
2023/10/04 09:31:50;;;;;;;2.85;1.30;;;;;;;16.65;100.00;98614.28;5012158;28;20437;-84
2023/10/04 09:34:16;;;;;;;2.47;1.35;;;;;;;16.76;100.00;98613.28;5022006;28;20400;-85
2023/10/04 09:36:42;;;;;;;7.28;2.08;;;;;;;16.70;100.00;98614.28;5015841;28;20406;-85
2023/10/04 09:39:23;;;;;;;3.72;1.73;;;;;;;16.83;100.00;98613.84;5011097;28;20425;-85
2023/10/04 09:41:50;;;;;;;13.00;2.30;;;;;;;16.34;100.00;98610.59;5009923;28;20453;-84
2023/10/04 09:44:26;;;;;;;5.25;1.88;;;;;;;16.97;100.00;98614.16;5003097;28;20410;-84
2023/10/04 09:46:56;;;;;;;3.35;1.80;;;;;;;17.36;100.00;98610.00;5008577;28;20419;-84
2023/10/04 09:49:28;;;;;;;4.25;1.80;;;;;;;17.78;100.00;98614.34;5004983;28;20437;-85
2023/10/04 09:51:55;;;;;;;4.55;1.70;;;;;;;18.47;100.00;98617.25;5013018;28;20440;-82
2023/10/04 09:54:22;;;;;;;7.10;2.63;;;;;;;18.50;100.00;98619.38;5007866;28;20414;-83
2023/10/04 09:56:50;;;;;;;7.28;2.20;;;;;;;18.98;100.00;98586.78;5009281;28;20406;-84
2023/10/04 09:59:20;;;;;;;4.53;1.80;;;;;;;19.78;100.00;98606.97;5009637;28;20495;-84
2023/10/04 10:01:53;;;;;;;3.97;1.40;;;;;;;20.24;100.00;98603.88;5011105;28;20785;-85
2023/10/04 10:04:25;;;;;;;4.80;2.00;;;;;;;20.33;100.00;98604.88;5008336;28;20503;-85
2023/10/04 10:07:06;;;;;;;5.05;1.98;;;;;;;19.83;100.00;98566.63;5007114;28;20408;-83
2023/10/04 10:09:36;;;;;;;4.05;1.50;;;;;;;19.49;100.00;98573.88;5002061;28;20398;-85
2023/10/04 10:12:03;;;;;;;7.78;1.88;;;;;;;19.12;100.00;98579.72;5000771;28;20895;-83
2023/10/04 10:14:32;;;;;;;3.30;1.60;;;;;;;18.74;100.00;98589.28;5009242;28;20573;-85
2023/10/04 10:17:01;;;;;;;3.80;1.70;;;;;;;18.18;100.00;98581.38;5004656;28;20410;-83
2023/10/04 10:19:28;;;;;;;3.33;1.52;;;;;;;17.81;100.00;98600.44;5005163;28;20420;-85
2023/10/04 10:22:10;;;;;;;4.28;1.83;;;;;;;17.46;100.00;98609.19;5000981;28;20968;-86
2023/10/04 10:24:45;;;;;;;6.05;2.15;;;;;;;17.48;100.00;98608.94;5000826;28;20416;-84
2023/10/04 10:27:15;;;;;;;4.30;1.73;;;;;;;17.65;100.00;98621.03;5009578;28;20438;-83
2023/10/04 10:29:43;;;;;;;2.83;1.50;;;;;;;17.84;100.00;98618.63;5006400;28;20421;-82
2023/10/04 10:32:20;;;;;;;4.22;1.80;;;;;;;17.89;100.00;98617.84;5003796;28;20767;-82
2023/10/04 10:34:49;;;;;;;7.05;1.98;;;;;;;17.47;100.00;98615.34;5007011;28;20442;-82
2023/10/04 10:37:18;;;;;;;2.88;1.70;;;;;;;17.57;100.00;98618.06;5004759;28;20406;-84
2023/10/04 10:39:45;;;;;;;6.93;2.25;;;;;;;17.34;100.00;98601.44;4999090;28;20410;-85
2023/10/04 10:42:12;;;;;;;4.47;2.25;;;;;;;17.40;100.00;98616.41;4982626;28;20483;-85
2023/10/04 10:44:39;;;;;;;5.30;1.63;;;;;;;17.48;100.00;98625.00;5001492;28;20398;-84
2023/10/04 10:47:18;;;;;;;5.22;2.28;;;;;;;17.61;100.00;98613.75;5000957;28;20394;-85
2023/10/04 10:49:53;;;;;;;4.07;1.63;;;;;;;17.64;100.00;98618.63;5000837;28;20783;-85
2023/10/04 10:52:24;;;;;;;3.28;1.73;;;;;;;17.49;100.00;98611.34;5003248;28;20406;-85
2023/10/04 10:54:51;;;;;;;3.38;1.67;;;;;;;17.33;100.00;98607.84;5002424;28;20410;-84
2023/10/04 10:57:20;;;;;;;2.72;1.52;;;;;;;17.28;100.00;98625.78;5004937;28;20406;-85
2023/10/04 10:59:46;;;;;;;8.67;2.03;;;;;;;16.75;100.00;98586.78;5006335;28;20439;-83
2023/10/04 11:02:12;;;;;;;8.75;2.00;;;;;;;16.47;100.00;98551.34;5004904;28;20433;-85
2023/10/04 11:04:40;;;;;;;8.23;2.22;;;;;;;16.55;100.00;98550.84;5007143;28;20406;-86
2023/10/04 11:07:06;;;;;;;4.40;2.00;;;;;;;17.12;100.00;98571.41;5010094;28;20415;-85
2023/10/04 11:09:38;;;;;;;4.13;1.87;;;;;;;17.85;100.00;98603.38;5004165;28;20452;-85
2023/10/04 11:12:07;;;;;;;3.47;1.70;;;;;;;18.61;100.00;98608.66;5003806;28;20412;-84
2023/10/04 11:14:34;;;;;;;5.10;1.83;;;;;;;18.65;100.00;98609.69;5010706;28;20418;-86
2023/10/04 11:17:00;;;;;;;2.58;1.80;;;;;;;19.07;100.00;98620.00;5023054;28;20439;-83
2023/10/04 11:19:26;;;;;;;4.87;1.90;;;;;;;19.30;100.00;98617.47;5020699;28;20400;-84
2023/10/04 11:21:56;;;;;;;4.72;1.77;;;;;;;19.75;100.00;98612.13;5020181;28;20832;-84
2023/10/04 11:24:23;;;;;;;2.38;1.50;;;;;;;20.06;100.00;98595.47;5019799;28;20404;-84
2023/10/04 11:26:50;;;;;;;5.03;1.60;;;;;;;20.47;100.00;98600.44;5020400;28;20393;-84